createdAt,value
2018-07-31T00:01:13.138Z,26.13
2018-07-31T00:03:40.633Z,26.08
2018-07-31T00:06:08.116Z,26.05
2018-07-31T00:08:35.610Z,26.02
2018-07-31T00:11:03.160Z,26.03
2018-07-31T00:13:30.665Z,26.01
2018-07-31T00:15:58.156Z,25.97
2018-07-31T00:18:25.653Z,25.92
2018-07-31T00:20:53.168Z,25.92
2018-07-31T00:23:20.608Z,25.92
2018-07-31T00:25:48.097Z,25.84
2018-07-31T00:28:15.530Z,25.74
2018-07-31T00:30:43.010Z,25.73
2018-07-31T00:33:10.562Z,25.68
2018-07-31T00:35:38.023Z,25.71
2018-07-31T00:38:05.521Z,25.76
2018-07-31T00:40:32.990Z,25.77
2018-07-31T00:43:00.455Z,25.73
2018-07-31T00:45:27.972Z,25.62
2018-07-31T00:47:55.399Z,25.49
2018-07-31T00:50:22.892Z,25.39
2018-07-31T00:52:50.298Z,25.37
2018-07-31T00:55:17.728Z,25.34
2018-07-31T00:57:45.157Z,25.36
2018-07-31T01:00:12.633Z,25.39
2018-07-31T01:02:40.125Z,25.34
2018-07-31T01:05:07.749Z,25.30
2018-07-31T01:07:35.179Z,25.26
2018-07-31T01:10:02.684Z,25.27
2018-07-31T01:12:30.179Z,25.28
2018-07-31T01:14:57.669Z,25.23
2018-07-31T01:17:25.100Z,25.25
2018-07-31T01:19:52.556Z,25.31
2018-07-31T01:22:20.039Z,25.31
2018-07-31T01:24:47.626Z,25.30
2018-07-31T01:27:15.068Z,25.21
2018-07-31T01:29:42.541Z,25.07
2018-07-31T01:32:09.961Z,25.03
2018-07-31T01:34:37.436Z,24.97
2018-07-31T01:37:04.819Z,24.93
2018-07-31T01:39:32.312Z,24.91
2018-07-31T01:41:59.770Z,24.87
2018-07-31T01:44:27.178Z,24.83
2018-07-31T01:46:54.618Z,24.81
2018-07-31T01:49:22.018Z,24.78
2018-07-31T01:51:49.494Z,24.72
2018-07-31T01:54:17.011Z,24.75
2018-07-31T01:56:44.484Z,24.69
2018-07-31T01:59:11.941Z,24.61
2018-07-31T02:01:39.467Z,24.57
2018-07-31T02:04:06.934Z,24.58
2018-07-31T02:06:34.430Z,24.67
2018-07-31T02:09:01.886Z,24.64
2018-07-31T02:11:29.356Z,24.60
2018-07-31T02:13:56.771Z,24.49
2018-07-31T02:16:24.215Z,24.44
2018-07-31T02:18:51.634Z,24.43
2018-07-31T02:21:19.078Z,24.39
2018-07-31T02:23:46.514Z,24.36
2018-07-31T02:26:13.947Z,24.36
2018-07-31T02:28:41.595Z,24.39
2018-07-31T02:31:08.984Z,24.42
2018-07-31T02:33:36.490Z,24.42
2018-07-31T02:36:03.893Z,24.39
2018-07-31T02:38:31.342Z,24.39
2018-07-31T02:40:58.775Z,24.41
2018-07-31T02:43:26.253Z,24.37
2018-07-31T02:45:53.694Z,24.34
2018-07-31T02:48:21.149Z,24.29
2018-07-31T02:50:48.607Z,24.27
2018-07-31T02:53:16.012Z,24.24
2018-07-31T02:55:43.463Z,24.18
2018-07-31T02:58:10.946Z,24.15
2018-07-31T03:00:38.345Z,24.15
2018-07-31T03:03:05.809Z,24.14
2018-07-31T03:05:33.545Z,24.07
2018-07-31T03:08:01.242Z,24.07
2018-07-31T03:10:28.694Z,24.05
2018-07-31T03:12:56.186Z,24.05
2018-07-31T03:15:23.741Z,24.02
2018-07-31T03:17:51.171Z,24.01
2018-07-31T03:20:18.629Z,24.00
2018-07-31T03:22:46.078Z,24.01
2018-07-31T03:25:13.533Z,23.99
2018-07-31T03:27:41.150Z,24.00
2018-07-31T03:30:08.569Z,24.00
2018-07-31T03:32:36.012Z,24.02
2018-07-31T03:35:03.465Z,24.06
2018-07-31T03:37:30.919Z,24.04
2018-07-31T03:39:58.483Z,24.03
2018-07-31T03:42:25.929Z,24.00
2018-07-31T03:44:53.399Z,23.98
2018-07-31T03:47:20.823Z,23.95
2018-07-31T03:49:48.274Z,23.90
2018-07-31T03:52:15.711Z,23.90
2018-07-31T03:54:43.116Z,23.79
2018-07-31T03:57:10.561Z,23.59
2018-07-31T03:59:37.979Z,23.59
2018-07-31T04:02:05.406Z,23.64
2018-07-31T04:04:32.903Z,23.70
2018-07-31T04:07:00.350Z,23.68
2018-07-31T04:09:27.871Z,23.71
2018-07-31T04:11:55.318Z,23.72
2018-07-31T04:14:22.843Z,23.75
2018-07-31T04:16:50.480Z,23.73
2018-07-31T04:19:18.105Z,23.59
2018-07-31T04:21:45.749Z,23.59
2018-07-31T04:24:13.182Z,23.59
2018-07-31T04:26:40.712Z,23.59
2018-07-31T04:29:09.032Z,23.56
2018-07-31T04:31:36.486Z,23.53
2018-07-31T04:34:03.984Z,23.55
2018-07-31T04:36:31.469Z,23.60
2018-07-31T04:38:58.902Z,23.59
2018-07-31T04:41:26.346Z,23.69
2018-07-31T04:43:53.757Z,23.74
2018-07-31T04:46:21.259Z,23.78
2018-07-31T04:48:48.751Z,23.85
2018-07-31T04:51:16.263Z,23.93
2018-07-31T04:53:44.503Z,23.95
2018-07-31T04:56:11.943Z,23.95
2018-07-31T04:58:39.391Z,23.99
2018-07-31T05:01:06.806Z,24.01
2018-07-31T05:03:34.339Z,23.95
2018-07-31T05:06:01.784Z,23.93
2018-07-31T05:08:29.358Z,23.85
2018-07-31T05:10:56.823Z,23.89
2018-07-31T05:13:24.269Z,23.95
2018-07-31T05:15:51.690Z,24.03
2018-07-31T05:18:19.241Z,24.11
2018-07-31T05:20:46.585Z,24.14
2018-07-31T05:23:14.134Z,24.21
2018-07-31T05:25:41.555Z,24.16
2018-07-31T05:28:08.978Z,24.13
2018-07-31T05:30:36.385Z,24.21
2018-07-31T05:33:03.799Z,24.31
2018-07-31T05:35:31.291Z,24.28
2018-07-31T05:37:58.759Z,24.24
2018-07-31T05:40:26.162Z,24.26
2018-07-31T05:42:53.604Z,24.41
2018-07-31T05:45:21.090Z,24.46
2018-07-31T05:47:48.520Z,24.52
2018-07-31T05:50:16.088Z,24.65
2018-07-31T05:52:43.587Z,24.74
2018-07-31T05:55:11.124Z,24.86
2018-07-31T05:57:38.702Z,25.02
2018-07-31T06:00:06.145Z,24.92
2018-07-31T06:02:33.606Z,24.82
2018-07-31T06:05:01.084Z,24.95
2018-07-31T06:07:28.562Z,25.22
2018-07-31T06:09:56.073Z,25.49
2018-07-31T06:12:23.689Z,25.64
2018-07-31T06:14:51.141Z,25.76
2018-07-31T06:17:18.638Z,25.66
2018-07-31T06:19:46.487Z,25.72
2018-07-31T06:22:13.918Z,25.81
2018-07-31T06:24:41.537Z,25.89
2018-07-31T06:27:09.157Z,25.98
2018-07-31T06:29:36.694Z,26.06
2018-07-31T06:32:04.131Z,26.11
2018-07-31T06:34:31.596Z,26.01
2018-07-31T06:36:59.048Z,26.08
2018-07-31T06:39:26.675Z,26.46
2018-07-31T06:41:54.412Z,26.67
2018-07-31T06:44:21.972Z,26.75
2018-07-31T06:46:49.479Z,26.75
2018-07-31T06:49:17.240Z,26.92
2018-07-31T06:51:44.699Z,27.22
2018-07-31T06:54:12.230Z,27.41
2018-07-31T06:56:39.746Z,27.57
2018-07-31T06:59:07.214Z,27.50
2018-07-31T07:01:34.774Z,27.75
2018-07-31T07:04:02.238Z,28.03
2018-07-31T07:06:29.674Z,28.23
2018-07-31T07:08:57.239Z,28.25
2018-07-31T07:11:24.698Z,28.47
2018-07-31T07:13:52.507Z,28.86
2018-07-31T07:16:20.031Z,29.10
2018-07-31T07:18:47.451Z,28.93
2018-07-31T07:21:15.191Z,29.11
2018-07-31T07:23:42.775Z,29.23
2018-07-31T07:26:10.403Z,29.32
2018-07-31T07:28:38.047Z,29.55
2018-07-31T07:31:05.652Z,29.57
2018-07-31T07:33:33.180Z,29.84
2018-07-31T07:36:00.727Z,30.37
2018-07-31T07:38:28.170Z,30.77
2018-07-31T07:40:55.739Z,30.68
2018-07-31T07:43:23.181Z,30.46
2018-07-31T07:45:50.956Z,30.41
2018-07-31T07:48:18.464Z,30.83
2018-07-31T07:50:46.033Z,30.93
2018-07-31T07:53:13.485Z,30.64
2018-07-31T07:55:40.904Z,30.41
2018-07-31T07:58:08.363Z,30.44
2018-07-31T08:00:35.836Z,30.64
2018-07-31T08:03:03.379Z,31.17
2018-07-31T08:05:30.843Z,31.33
2018-07-31T08:07:58.296Z,31.08
2018-07-31T08:10:25.737Z,30.75
2018-07-31T08:12:53.171Z,30.60
2018-07-31T08:15:20.779Z,30.58
2018-07-31T08:17:48.303Z,30.61
2018-07-31T08:20:15.892Z,30.78
2018-07-31T08:22:43.378Z,30.88
2018-07-31T08:25:10.860Z,31.39
2018-07-31T08:27:39.335Z,32.29
2018-07-31T08:30:06.756Z,32.73
2018-07-31T08:32:34.240Z,32.44
2018-07-31T08:35:01.968Z,32.44
2018-07-31T08:37:28.912Z,32.57
2018-07-31T08:39:56.067Z,32.17
2018-07-31T08:42:23.070Z,32.24
2018-07-31T08:44:50.067Z,32.66
2018-07-31T08:47:17.054Z,33.51
2018-07-31T08:49:44.194Z,33.98
2018-07-31T08:52:11.882Z,34.22
2018-07-31T08:54:38.903Z,34.51
2018-07-31T08:57:06.216Z,34.89
2018-07-31T08:59:33.205Z,34.64
2018-07-31T09:02:00.298Z,34.07
2018-07-31T09:04:27.300Z,33.78
2018-07-31T09:06:54.395Z,33.87
2018-07-31T09:09:21.391Z,33.98
2018-07-31T09:11:48.500Z,34.06
2018-07-31T09:14:15.655Z,34.06
2018-07-31T09:16:43.184Z,33.92
2018-07-31T09:19:10.189Z,33.96
2018-07-31T09:21:37.288Z,33.84
2018-07-31T09:24:04.800Z,34.34
2018-07-31T09:26:31.939Z,34.14
2018-07-31T09:28:59.384Z,33.96
2018-07-31T09:31:26.991Z,34.03
2018-07-31T09:33:54.700Z,34.02
2018-07-31T09:36:22.191Z,34.00
2018-07-31T09:38:49.643Z,33.58
2018-07-31T09:41:17.170Z,33.61
2018-07-31T09:43:44.638Z,33.71
2018-07-31T09:46:12.292Z,34.07
2018-07-31T09:48:39.772Z,34.09
2018-07-31T09:51:07.293Z,34.17
2018-07-31T09:53:34.468Z,34.65
2018-07-31T09:56:02.008Z,34.91
2018-07-31T09:58:29.438Z,35.14
2018-07-31T10:00:56.980Z,35.27
2018-07-31T10:03:24.451Z,35.52
2018-07-31T10:05:52.126Z,35.49
2018-07-31T10:08:19.656Z,35.27
2018-07-31T10:10:47.154Z,35.30
2018-07-31T10:13:14.668Z,35.70
2018-07-31T10:15:41.691Z,35.90
2018-07-31T10:18:08.757Z,35.90
2018-07-31T10:20:35.766Z,35.49
2018-07-31T10:23:02.742Z,35.16
2018-07-31T10:25:29.966Z,35.12
2018-07-31T10:27:57.103Z,35.17
2018-07-31T10:30:24.087Z,35.18
2018-07-31T10:32:51.094Z,35.09
2018-07-31T10:35:19.038Z,34.96
2018-07-31T10:37:46.255Z,35.01
2018-07-31T10:40:13.249Z,35.23
2018-07-31T10:42:40.263Z,35.25
2018-07-31T10:45:07.252Z,34.80
2018-07-31T10:47:34.317Z,34.79
2018-07-31T10:50:01.291Z,34.93
2018-07-31T10:52:28.376Z,35.07
2018-07-31T10:54:55.536Z,35.36
2018-07-31T10:57:22.481Z,35.36
2018-07-31T10:59:49.860Z,35.54
2018-07-31T11:02:16.745Z,35.45
2018-07-31T11:04:43.950Z,35.23
2018-07-31T11:07:11.010Z,35.29
2018-07-31T11:09:38.428Z,35.45
2018-07-31T11:12:05.509Z,35.64
2018-07-31T11:14:33.099Z,35.77
2018-07-31T11:17:00.617Z,35.91
2018-07-31T11:19:27.608Z,35.93
2018-07-31T11:21:54.599Z,36.18
2018-07-31T11:24:22.164Z,36.22
2018-07-31T11:26:49.163Z,36.27
2018-07-31T11:29:16.176Z,36.27
2018-07-31T11:31:43.150Z,36.23
2018-07-31T11:34:10.162Z,36.27
2018-07-31T11:36:37.208Z,36.20
2018-07-31T11:39:04.231Z,36.37
2018-07-31T11:41:31.227Z,36.52
2018-07-31T11:43:58.776Z,36.65
2018-07-31T11:46:25.985Z,36.68
2018-07-31T11:48:53.756Z,36.76
2018-07-31T11:51:21.382Z,36.86
2018-07-31T11:53:49.030Z,36.86
2018-07-31T11:56:16.627Z,36.89
2018-07-31T11:58:44.243Z,37.04
2018-07-31T12:01:11.927Z,37.11
2018-07-31T12:03:39.339Z,37.10
2018-07-31T12:06:06.888Z,37.04
2018-07-31T12:08:34.360Z,37.16
2018-07-31T12:11:01.906Z,37.13
2018-07-31T12:13:29.442Z,37.22
2018-07-31T12:15:56.995Z,37.61
2018-07-31T12:18:24.515Z,37.90
2018-07-31T12:20:52.056Z,37.84
2018-07-31T12:23:20.462Z,37.55
2018-07-31T12:25:47.960Z,37.45
2018-07-31T12:28:16.730Z,37.68
2018-07-31T12:30:44.351Z,37.08
2018-07-31T12:33:11.848Z,36.75
2018-07-31T12:35:39.339Z,36.67
2018-07-31T12:38:06.819Z,36.58
2018-07-31T12:40:34.252Z,36.52
2018-07-31T12:43:01.790Z,36.52
2018-07-31T12:45:29.267Z,36.63
2018-07-31T12:47:57.016Z,36.59
2018-07-31T12:50:24.465Z,36.53
2018-07-31T12:52:51.920Z,36.03
2018-07-31T12:55:19.470Z,35.69
2018-07-31T12:57:46.955Z,35.51
2018-07-31T13:00:14.429Z,35.71
2018-07-31T13:02:41.937Z,35.98
2018-07-31T13:05:09.402Z,36.11
2018-07-31T13:07:36.855Z,36.03
2018-07-31T13:10:04.312Z,35.96
2018-07-31T13:12:31.757Z,35.95
2018-07-31T13:14:59.217Z,35.91
2018-07-31T13:17:26.761Z,35.81
2018-07-31T13:19:55.332Z,35.75
2018-07-31T13:22:22.773Z,35.73
2018-07-31T13:24:50.232Z,35.89
2018-07-31T13:27:17.745Z,36.22
2018-07-31T13:29:45.195Z,36.50
2018-07-31T13:32:12.675Z,36.68
2018-07-31T13:34:40.184Z,36.79
2018-07-31T13:37:07.804Z,36.85
2018-07-31T13:39:35.287Z,36.87
2018-07-31T13:42:02.896Z,37.12
2018-07-31T13:44:30.367Z,37.57
2018-07-31T13:46:57.831Z,37.81
2018-07-31T13:49:25.323Z,37.59
2018-07-31T13:51:52.822Z,37.53
2018-07-31T13:54:20.328Z,37.71
2018-07-31T13:56:47.822Z,38.02
2018-07-31T13:59:15.303Z,37.81
2018-07-31T14:01:42.946Z,37.53
2018-07-31T14:04:10.379Z,37.92
2018-07-31T14:06:37.863Z,38.32
2018-07-31T14:09:05.360Z,37.90
2018-07-31T14:11:32.812Z,37.54
2018-07-31T14:14:00.347Z,37.60
2018-07-31T14:16:27.877Z,37.65
2018-07-31T14:18:55.385Z,37.30
2018-07-31T14:21:22.878Z,37.43
2018-07-31T14:23:50.299Z,37.41
2018-07-31T14:26:17.711Z,36.76
2018-07-31T14:28:45.317Z,36.36
2018-07-31T14:31:12.780Z,36.17
2018-07-31T14:33:40.278Z,36.25
2018-07-31T14:36:07.864Z,36.14
2018-07-31T14:38:35.328Z,36.29
2018-07-31T14:41:02.842Z,36.41
2018-07-31T14:43:30.318Z,36.75
2018-07-31T14:45:58.200Z,36.80
2018-07-31T14:48:25.711Z,36.96
2018-07-31T14:50:53.216Z,37.12
2018-07-31T14:53:20.788Z,37.31
2018-07-31T14:55:48.278Z,37.34
2018-07-31T14:58:15.747Z,37.56
2018-07-31T15:00:43.193Z,37.29
2018-07-31T15:03:10.661Z,37.12
2018-07-31T15:05:38.365Z,37.16
2018-07-31T15:08:05.798Z,37.11
2018-07-31T15:10:33.260Z,36.88
2018-07-31T15:13:00.768Z,36.77
2018-07-31T15:15:28.307Z,36.76
2018-07-31T15:17:55.772Z,36.70
2018-07-31T15:20:23.460Z,36.94
2018-07-31T15:22:50.923Z,37.12
2018-07-31T15:25:18.465Z,37.01
2018-07-31T15:27:46.002Z,36.99
2018-07-31T15:30:13.484Z,36.84
2018-07-31T15:32:40.967Z,36.62
2018-07-31T15:35:08.481Z,36.36
2018-07-31T15:37:35.922Z,36.08
2018-07-31T15:40:03.437Z,36.21
2018-07-31T15:42:31.137Z,36.19
2018-07-31T15:44:58.746Z,36.16
2018-07-31T15:47:26.221Z,36.06
2018-07-31T15:49:53.691Z,35.96
2018-07-31T15:52:21.130Z,35.83
2018-07-31T15:54:48.607Z,35.78
2018-07-31T15:57:16.049Z,35.44
2018-07-31T15:59:43.582Z,35.39
2018-07-31T16:02:10.982Z,35.52
2018-07-31T16:04:38.475Z,35.61
2018-07-31T16:07:05.943Z,35.56
2018-07-31T16:09:33.358Z,35.53
2018-07-31T16:12:00.969Z,35.54
2018-07-31T16:14:28.505Z,35.51
2018-07-31T16:16:55.952Z,35.62
2018-07-31T16:19:23.991Z,35.66
2018-07-31T16:21:51.663Z,35.63
2018-07-31T16:24:19.076Z,35.66
2018-07-31T16:26:46.549Z,35.55
2018-07-31T16:29:14.018Z,35.59
2018-07-31T16:31:41.456Z,35.60
2018-07-31T16:34:09.041Z,35.64
2018-07-31T16:36:36.519Z,35.59
2018-07-31T16:39:04.008Z,35.65
2018-07-31T16:41:31.528Z,35.56
2018-07-31T16:43:58.977Z,35.44
2018-07-31T16:46:26.431Z,35.41
2018-07-31T16:48:54.014Z,35.24
2018-07-31T16:51:21.587Z,35.05
2018-07-31T16:53:49.020Z,34.93
2018-07-31T16:56:16.587Z,34.84
2018-07-31T16:58:44.107Z,34.77
2018-07-31T17:01:11.627Z,34.66
2018-07-31T17:03:39.302Z,34.60
2018-07-31T17:06:06.771Z,34.54
2018-07-31T17:08:34.219Z,34.46
2018-07-31T17:11:01.740Z,34.33
2018-07-31T17:13:29.245Z,34.30
2018-07-31T17:15:56.777Z,34.27
2018-07-31T17:18:24.249Z,34.15
2018-07-31T17:20:52.113Z,34.04
2018-07-31T17:23:19.765Z,33.87
2018-07-31T17:25:47.303Z,33.80
2018-07-31T17:30:48.395Z,33.60
2018-07-31T17:33:15.836Z,33.60
2018-07-31T17:35:43.310Z,33.54
2018-07-31T17:38:10.820Z,33.58
2018-07-31T17:40:38.320Z,33.56
2018-07-31T17:43:05.816Z,33.54
2018-07-31T17:45:33.257Z,33.48
2018-07-31T17:48:00.722Z,33.47
2018-07-31T17:50:28.353Z,33.36
2018-07-31T17:52:55.881Z,33.34
2018-07-31T17:55:23.456Z,33.46
2018-07-31T17:57:50.919Z,33.44
2018-07-31T18:00:18.449Z,33.41
2018-07-31T18:02:45.925Z,33.45
2018-07-31T18:05:13.554Z,33.49
2018-07-31T18:07:41.183Z,33.58
2018-07-31T18:10:08.731Z,33.50
2018-07-31T18:12:36.183Z,33.43
2018-07-31T18:15:03.852Z,33.48
2018-07-31T18:17:31.336Z,33.36
2018-07-31T18:19:58.894Z,33.26
2018-07-31T18:22:26.303Z,33.21
2018-07-31T18:24:53.981Z,33.05
2018-07-31T18:27:21.427Z,33.00
2018-07-31T18:29:48.922Z,32.90
2018-07-31T18:32:16.506Z,32.92
2018-07-31T18:34:44.016Z,32.86
2018-07-31T18:37:11.555Z,32.82
2018-07-31T18:39:38.551Z,32.67
2018-07-31T18:42:06.043Z,32.53
2018-07-31T18:44:33.642Z,32.48
2018-07-31T18:47:01.112Z,32.36
2018-07-31T18:49:28.608Z,32.28
2018-07-31T18:51:56.049Z,32.16
2018-07-31T18:54:23.608Z,32.06
2018-07-31T18:56:50.687Z,31.95
2018-07-31T18:59:18.105Z,31.82
2018-07-31T19:01:45.675Z,31.72
2018-07-31T19:04:13.130Z,31.62
2018-07-31T19:06:40.596Z,31.55
2018-07-31T19:09:08.216Z,31.51
2018-07-31T19:11:35.648Z,31.44
2018-07-31T19:14:03.091Z,31.43
2018-07-31T19:16:30.554Z,31.37
2018-07-31T19:18:58.008Z,31.34
2018-07-31T19:21:25.506Z,31.31
2018-07-31T19:23:53.058Z,31.27
2018-07-31T19:26:20.565Z,31.24
2018-07-31T19:28:48.017Z,31.17
2018-07-31T19:31:15.479Z,31.10
2018-07-31T19:33:43.010Z,31.04
2018-07-31T19:36:10.428Z,30.99
2018-07-31T19:38:37.926Z,30.94
2018-07-31T19:41:05.448Z,30.90
2018-07-31T19:43:32.956Z,30.85
2018-07-31T19:46:00.515Z,30.78
2018-07-31T19:48:27.969Z,30.71
2018-07-31T19:50:55.393Z,30.66
2018-07-31T19:53:23.161Z,30.59
2018-07-31T19:55:50.609Z,30.54
2018-07-31T19:58:18.090Z,30.50
2018-07-31T20:00:45.524Z,30.45
2018-07-31T20:03:12.963Z,30.46
2018-07-31T20:05:40.419Z,30.44
2018-07-31T20:08:07.842Z,30.42
2018-07-31T20:10:35.307Z,30.39
2018-07-31T20:13:02.806Z,30.36
2018-07-31T20:15:30.393Z,30.30
2018-07-31T20:17:57.816Z,30.26
2018-07-31T20:20:25.301Z,30.21
2018-07-31T20:22:52.746Z,30.16
2018-07-31T20:25:20.413Z,30.12
2018-07-31T20:27:47.940Z,30.06
2018-07-31T20:30:15.437Z,30.04
2018-07-31T20:32:42.883Z,30.04
2018-07-31T20:35:10.361Z,30.02
2018-07-31T20:37:37.918Z,30.01
2018-07-31T20:40:06.768Z,29.98
2018-07-31T20:42:34.259Z,29.97
2018-07-31T20:45:01.723Z,29.93
2018-07-31T20:47:29.203Z,29.92
2018-07-31T20:49:56.696Z,29.92
2018-07-31T20:52:24.143Z,29.91
2018-07-31T20:54:51.660Z,29.92
2018-07-31T20:57:19.176Z,29.92
2018-07-31T20:59:46.648Z,29.89
2018-07-31T21:02:14.232Z,29.87
2018-07-31T21:04:41.709Z,29.80
2018-07-31T21:07:09.151Z,29.71
2018-07-31T21:09:36.616Z,29.67
2018-07-31T21:12:04.108Z,29.51
2018-07-31T21:14:31.542Z,29.39
2018-07-31T21:16:59.112Z,29.36
2018-07-31T21:19:26.517Z,29.39
2018-07-31T21:21:54.058Z,29.36
2018-07-31T21:24:21.493Z,29.32
2018-07-31T21:26:49.018Z,29.27
2018-07-31T21:29:16.486Z,29.27
2018-07-31T21:31:43.943Z,29.18
2018-07-31T21:34:11.441Z,29.12
2018-07-31T21:36:38.912Z,29.08
2018-07-31T21:39:06.370Z,29.06
2018-07-31T21:41:33.830Z,29.02
2018-07-31T21:44:02.369Z,28.97
2018-07-31T21:46:30.061Z,28.81
2018-07-31T21:48:57.508Z,28.62
2018-07-31T21:51:24.976Z,28.44
2018-07-31T21:53:52.442Z,28.38
2018-07-31T21:56:20.127Z,28.31
2018-07-31T21:58:47.564Z,28.29
2018-07-31T22:01:15.127Z,28.19
2018-07-31T22:03:42.550Z,28.12
2018-07-31T22:06:10.055Z,28.03
2018-07-31T22:08:37.565Z,27.88
2018-07-31T22:11:05.136Z,27.80
2018-07-31T22:13:32.617Z,27.77
2018-07-31T22:16:00.139Z,27.71
2018-07-31T22:18:27.679Z,27.68
2018-07-31T22:20:55.151Z,27.65
2018-07-31T22:23:22.685Z,27.74
2018-07-31T22:25:50.165Z,27.83
2018-07-31T22:28:17.607Z,27.89
2018-07-31T22:30:45.191Z,27.91
2018-07-31T22:33:12.611Z,27.95
2018-07-31T22:35:40.162Z,27.92
2018-07-31T22:38:07.668Z,27.93
2018-07-31T22:40:35.259Z,27.88
2018-07-31T22:43:02.766Z,27.87
2018-07-31T22:45:30.190Z,27.85
2018-07-31T22:47:57.649Z,27.85
2018-07-31T22:50:25.219Z,27.82
2018-07-31T22:52:52.759Z,27.81
2018-07-31T22:55:20.204Z,27.76
2018-07-31T22:57:47.666Z,27.61
2018-07-31T23:00:15.139Z,27.47
2018-07-31T23:02:42.618Z,27.44
2018-07-31T23:05:10.139Z,27.45
2018-07-31T23:07:37.834Z,27.48
2018-07-31T23:10:05.331Z,27.39
2018-07-31T23:12:32.874Z,27.39
2018-07-31T23:15:00.351Z,27.36
2018-07-31T23:17:27.794Z,27.41
2018-07-31T23:19:55.245Z,27.23
2018-07-31T23:22:23.400Z,27.26
2018-07-31T23:24:50.982Z,27.37
2018-07-31T23:27:18.436Z,27.43
2018-07-31T23:29:45.883Z,27.46
2018-07-31T23:32:13.364Z,27.47
2018-07-31T23:34:40.874Z,27.45
2018-07-31T23:37:08.314Z,27.40
2018-07-31T23:39:35.751Z,27.29
2018-07-31T23:42:03.252Z,27.28
2018-07-31T23:44:30.878Z,27.22
2018-07-31T23:46:58.597Z,27.23
2018-07-31T23:49:26.048Z,27.24
2018-07-31T23:51:53.541Z,27.23
2018-07-31T23:54:21.053Z,27.19
2018-07-31T23:56:48.642Z,27.16
2018-07-31T23:59:16.099Z,27.13
